createdAt,value
2023-01-30T00:00:30.715Z,4.686
2023-01-30T00:01:28.600Z,4.686
2023-01-30T00:03:28.658Z,4.686
2023-01-30T00:05:28.756Z,4.686
2023-01-30T00:07:28.113Z,4.729
2023-01-30T00:09:28.418Z,4.739
2023-01-30T00:11:28.539Z,4.739
2023-01-30T00:13:28.567Z,4.75
2023-01-30T00:15:28.507Z,4.75
2023-01-30T00:17:28.392Z,4.75
2023-01-30T00:19:28.338Z,4.75
2023-01-30T00:21:27.952Z,4.75
2023-01-30T00:22:28.781Z,4.75
2023-01-30T00:23:28.155Z,4.75
2023-01-30T00:24:28.796Z,4.75
2023-01-30T00:26:04.505Z,4.75
2023-01-30T00:26:28.426Z,4.75
2023-01-30T00:27:28.576Z,4.75
2023-01-30T00:28:28.468Z,4.75
2023-01-30T00:29:28.000Z,4.75
2023-01-30T00:30:28.516Z,4.75
2023-01-30T00:31:28.058Z,4.75
2023-01-30T00:32:28.243Z,4.75
2023-01-30T00:33:28.450Z,4.760
2023-01-30T00:34:28.424Z,4.776
2023-01-30T00:35:28.666Z,4.787
2023-01-30T00:36:28.820Z,4.770
2023-01-30T00:37:28.778Z,4.791
2023-01-30T00:38:28.353Z,4.803
2023-01-30T00:39:28.049Z,4.774
2023-01-30T00:41:28.324Z,4.811
2023-01-30T00:43:28.541Z,4.811
2023-01-30T00:44:28.388Z,4.811
2023-01-30T00:45:29.094Z,4.811
2023-01-30T00:46:28.262Z,4.811
2023-01-30T00:47:28.173Z,4.811
2023-01-30T00:48:28.325Z,4.811
2023-01-30T00:49:28.520Z,4.811
2023-01-30T00:50:28.534Z,4.811
2023-01-30T00:51:28.253Z,4.811
2023-01-30T00:52:28.134Z,4.811
2023-01-30T00:53:28.266Z,4.811
2023-01-30T00:54:28.366Z,4.811
2023-01-30T00:55:28.779Z,4.811
2023-01-30T00:56:28.248Z,4.811
2023-01-30T00:57:28.183Z,4.811
2023-01-30T00:58:29.244Z,4.811
2023-01-30T00:59:28.266Z,4.811
2023-01-30T01:00:29.599Z,4.811
2023-01-30T01:01:31.823Z,4.811
2023-01-30T01:02:33.330Z,4.811
2023-01-30T01:03:28.386Z,4.811
2023-01-30T01:04:28.291Z,4.811
2023-01-30T01:05:28.827Z,4.811
2023-01-30T01:06:28.569Z,4.811
2023-01-30T01:07:28.041Z,4.811
2023-01-30T01:08:28.099Z,4.811
2023-01-30T01:09:28.056Z,4.811
2023-01-30T01:10:28.134Z,4.811
2023-01-30T01:11:28.006Z,4.811
2023-01-30T01:12:28.343Z,4.811
2023-01-30T01:13:28.605Z,4.811
2023-01-30T01:14:28.534Z,4.833
2023-01-30T01:15:29.632Z,4.843
2023-01-30T01:16:28.585Z,4.864
2023-01-30T01:17:28.629Z,4.864
2023-01-30T01:18:28.613Z,4.864
2023-01-30T01:19:28.576Z,4.875
2023-01-30T01:20:28.707Z,4.843
2023-01-30T01:21:31.592Z,4.875
2023-01-30T01:22:28.732Z,4.875
2023-01-30T01:23:28.353Z,4.875
2023-01-30T01:24:28.182Z,4.875
2023-01-30T01:25:29.072Z,4.875
2023-01-30T01:26:28.397Z,4.875
2023-01-30T01:27:28.388Z,4.875
2023-01-30T01:28:28.257Z,4.875
2023-01-30T01:29:28.432Z,4.875
2023-01-30T01:30:28.823Z,4.875
2023-01-30T01:31:28.772Z,4.875
2023-01-30T01:32:28.903Z,4.875
2023-01-30T01:33:28.685Z,4.875
2023-01-30T01:34:28.323Z,4.875
2023-01-30T01:35:29.197Z,4.875
2023-01-30T01:37:03.612Z,4.875
2023-01-30T01:37:28.703Z,4.875
2023-01-30T01:38:28.205Z,4.875
2023-01-30T01:39:27.901Z,4.875
2023-01-30T01:40:28.753Z,4.875
2023-01-30T01:41:28.440Z,4.875
2023-01-30T01:42:28.437Z,4.875
2023-01-30T01:43:28.161Z,4.875
2023-01-30T01:44:28.263Z,4.875
2023-01-30T01:45:28.695Z,4.875
2023-01-30T01:46:28.242Z,4.875
2023-01-30T01:47:28.254Z,4.885
2023-01-30T01:48:28.163Z,4.885
2023-01-30T01:49:28.056Z,4.885
2023-01-30T01:51:28.473Z,4.916
2023-01-30T01:52:28.059Z,4.936
2023-01-30T01:53:27.982Z,4.936
2023-01-30T01:54:27.837Z,4.936
2023-01-30T01:55:29.151Z,4.936
2023-01-30T01:56:28.078Z,4.936
2023-01-30T01:57:27.740Z,4.936
2023-01-30T01:58:28.234Z,4.936
2023-01-30T01:59:27.904Z,4.936
2023-01-30T02:00:29.067Z,4.936
2023-01-30T02:01:28.325Z,4.936
2023-01-30T02:02:28.690Z,4.936
2023-01-30T02:03:29.296Z,4.936
2023-01-30T02:04:28.553Z,4.936
2023-01-30T02:05:29.567Z,4.936
2023-01-30T02:06:28.923Z,4.936
2023-01-30T02:07:28.677Z,4.936
2023-01-30T02:08:28.873Z,4.936
2023-01-30T02:09:28.931Z,4.936
2023-01-30T02:10:29.239Z,4.936
2023-01-30T02:11:29.030Z,4.936
2023-01-30T02:12:27.705Z,4.936
2023-01-30T02:13:28.219Z,4.936
2023-01-30T02:14:27.870Z,4.936
2023-01-30T02:15:29.260Z,4.936
2023-01-30T02:16:28.000Z,4.968
2023-01-30T02:17:28.028Z,4.947
2023-01-30T02:18:27.853Z,4.968
2023-01-30T02:19:28.208Z,4.979
2023-01-30T02:20:28.139Z,4.989
2023-01-30T02:21:27.821Z,5
2023-01-30T02:22:28.137Z,4.979
2023-01-30T02:23:27.884Z,4.989
2023-01-30T02:24:28.656Z,5
2023-01-30T02:25:28.636Z,5
2023-01-30T02:26:28.341Z,4.968
2023-01-30T02:27:27.850Z,4.968
2023-01-30T02:28:28.918Z,4.979
2023-01-30T02:29:28.410Z,5
2023-01-30T02:30:28.659Z,4.989
2023-01-30T02:31:28.763Z,5
2023-01-30T02:32:28.196Z,5
2023-01-30T02:33:28.194Z,5
2023-01-30T02:34:27.907Z,5
2023-01-30T02:35:28.925Z,5
2023-01-30T02:36:28.296Z,5
2023-01-30T02:37:27.927Z,5
2023-01-30T02:38:28.289Z,5
2023-01-30T02:39:27.982Z,5
2023-01-30T02:40:27.352Z,5
2023-01-30T02:41:27.822Z,5
2023-01-30T02:42:28.604Z,5
2023-01-30T02:43:28.192Z,5
2023-01-30T02:44:27.589Z,5
2023-01-30T02:45:28.541Z,5
2023-01-30T02:46:27.713Z,5
2023-01-30T02:47:27.974Z,5
2023-01-30T02:48:27.776Z,5
2023-01-30T02:49:28.283Z,5
2023-01-30T02:50:27.905Z,5
2023-01-30T02:51:28.228Z,5
2023-01-30T02:52:29.096Z,5
2023-01-30T02:53:28.026Z,5
2023-01-30T02:55:29.416Z,5
2023-01-30T02:56:28.214Z,5.020
2023-01-30T02:57:27.929Z,5.031
2023-01-30T02:58:28.655Z,5.051
2023-01-30T02:59:28.406Z,5.061
2023-01-30T03:00:29.493Z,5.061
2023-01-30T03:01:28.280Z,5.061
2023-01-30T03:02:27.958Z,5.061
2023-01-30T03:03:28.031Z,5.061
2023-01-30T03:04:27.538Z,5.061
2023-01-30T03:05:28.461Z,5.061
2023-01-30T03:06:28.062Z,5.061
2023-01-30T03:07:27.778Z,5.061
2023-01-30T03:08:28.336Z,5.061
2023-01-30T03:09:27.651Z,5.061
2023-01-30T03:10:28.729Z,5.061
2023-01-30T03:11:28.544Z,5.061
2023-01-30T03:12:28.550Z,5.061
2023-01-30T03:13:28.304Z,5.061
2023-01-30T03:14:28.318Z,5.061
2023-01-30T03:15:28.988Z,5.061
2023-01-30T03:16:28.174Z,5.061
2023-01-30T03:17:28.193Z,5.061
2023-01-30T03:18:27.916Z,5.061
2023-01-30T03:19:28.324Z,5.061
2023-01-30T03:20:28.020Z,5.104
2023-01-30T03:21:27.805Z,5.125
2023-01-30T03:22:28.326Z,5.125
2023-01-30T03:23:27.975Z,5.125
2023-01-30T03:24:28.551Z,4.199
2023-01-30T03:25:28.849Z,5.125
2023-01-30T03:26:28.818Z,5.125
2023-01-30T03:27:27.804Z,5.125
2023-01-30T03:28:28.257Z,5.125
2023-01-30T03:29:28.475Z,5.125
2023-01-30T03:30:28.217Z,5.125
2023-01-30T03:31:28.245Z,5.125
2023-01-30T03:32:28.047Z,5.125
2023-01-30T03:33:27.927Z,5.125
2023-01-30T03:34:28.171Z,5.125
2023-01-30T03:35:28.370Z,5.125
2023-01-30T03:36:28.078Z,5.125
2023-01-30T03:37:27.832Z,5.125
2023-01-30T03:38:28.394Z,5.125
2023-01-30T03:39:28.543Z,5.149
2023-01-30T03:40:28.210Z,5.125
2023-01-30T03:41:28.162Z,5.125
2023-01-30T03:42:28.005Z,5.133
2023-01-30T03:43:28.039Z,5.137
2023-01-30T03:44:27.779Z,5.156
2023-01-30T03:45:42.451Z,5.186
2023-01-30T03:46:28.043Z,5.186
2023-01-30T03:47:28.254Z,5.186
2023-01-30T03:48:28.089Z,5.186
2023-01-30T03:49:27.817Z,5.186
2023-01-30T03:50:28.740Z,5.186
2023-01-30T03:51:27.642Z,5.186
2023-01-30T03:52:27.997Z,5.186
2023-01-30T03:53:28.044Z,5.186
2023-01-30T03:54:28.008Z,5.186
2023-01-30T03:55:28.463Z,5.186
2023-01-30T03:56:28.416Z,5.186
2023-01-30T03:57:27.858Z,5.186
2023-01-30T03:58:27.985Z,5.186
2023-01-30T03:59:28.186Z,5.186
2023-01-30T04:00:28.802Z,5.186
2023-01-30T04:01:28.708Z,4.300
2023-01-30T04:02:28.661Z,5.186
2023-01-30T04:03:28.592Z,5.197
2023-01-30T04:04:28.593Z,5.186
2023-01-30T04:05:28.798Z,5.197
2023-01-30T04:06:28.817Z,5.186
2023-01-30T04:07:28.257Z,5.197
2023-01-30T04:08:28.209Z,5.229
2023-01-30T04:09:28.339Z,5.25
2023-01-30T04:10:28.464Z,5.25
2023-01-30T04:11:28.234Z,5.25
2023-01-30T04:12:28.249Z,5.218
2023-01-30T04:13:28.071Z,5.229
2023-01-30T04:14:28.368Z,5.25
2023-01-30T04:15:28.616Z,5.25
2023-01-30T04:16:28.365Z,5.25
2023-01-30T04:17:28.250Z,5.25
2023-01-30T04:18:28.159Z,5.25
2023-01-30T04:19:27.931Z,5.239
2023-01-30T04:20:28.976Z,5.25
2023-01-30T04:21:28.210Z,5.25
2023-01-30T04:22:28.315Z,5.25
2023-01-30T04:23:28.424Z,5.25
2023-01-30T04:24:28.347Z,5.25
2023-01-30T04:25:28.850Z,5.25
2023-01-30T04:26:28.715Z,5.25
2023-01-30T04:27:27.887Z,5.25
2023-01-30T04:29:28.248Z,5.25
2023-01-30T04:30:28.667Z,5.25
2023-01-30T04:31:28.421Z,5.25
2023-01-30T04:32:28.326Z,5.25
2023-01-30T04:33:28.070Z,5.25
2023-01-30T04:34:28.123Z,5.25
2023-01-30T04:35:28.715Z,5.25
2023-01-30T04:36:28.357Z,5.25
2023-01-30T04:37:28.281Z,5.25
2023-01-30T04:38:28.205Z,4.300
2023-01-30T04:39:29.621Z,5.25
2023-01-30T04:40:28.843Z,5.25
2023-01-30T04:41:28.159Z,5.281
2023-01-30T04:43:27.934Z,5.270
2023-01-30T04:44:28.700Z,5.25
2023-01-30T04:45:30.339Z,5.260
2023-01-30T04:46:28.278Z,5.260
2023-01-30T04:47:28.028Z,5.291
2023-01-30T04:48:28.056Z,5.301
2023-01-30T04:49:28.088Z,5.311
2023-01-30T04:50:28.265Z,5.291
2023-01-30T04:51:28.370Z,5.301
2023-01-30T04:52:28.591Z,5.301
2023-01-30T04:53:28.468Z,5.301
2023-01-30T04:54:28.601Z,5.311
2023-01-30T04:55:28.808Z,5.311
2023-01-30T04:56:28.440Z,5.311
2023-01-30T04:57:28.349Z,5.311
2023-01-30T04:58:28.320Z,5.311
2023-01-30T04:59:28.181Z,5.311
2023-01-30T05:00:29.424Z,5.311
2023-01-30T05:01:28.625Z,5.311
2023-01-30T05:02:29.040Z,5.311
2023-01-30T05:03:28.152Z,5.311
2023-01-30T05:04:28.465Z,5.311
2023-01-30T05:05:29.004Z,5.311
2023-01-30T05:06:28.139Z,5.311
2023-01-30T05:07:28.616Z,5.311
2023-01-30T05:08:28.514Z,5.311
2023-01-30T05:09:28.513Z,5.311
2023-01-30T05:10:28.865Z,5.311
2023-01-30T05:11:28.649Z,5.311
2023-01-30T05:12:28.147Z,5.311
2023-01-30T05:13:28.244Z,5.311
2023-01-30T05:14:28.235Z,5.311
2023-01-30T05:15:29.019Z,5.311
2023-01-30T05:16:28.603Z,5.311
2023-01-30T05:17:28.643Z,5.311
2023-01-30T05:18:28.931Z,5.311
2023-01-30T05:19:29.201Z,5.311
2023-01-30T05:20:28.763Z,5.311
2023-01-30T05:21:28.805Z,5.311
2023-01-30T05:22:28.833Z,5.311
2023-01-30T05:23:28.836Z,5.311
2023-01-30T05:24:28.800Z,5.311
2023-01-30T05:25:29.247Z,5.311
2023-01-30T05:26:28.601Z,5.322
2023-01-30T05:27:28.882Z,5.343
2023-01-30T05:28:28.845Z,5.311
2023-01-30T05:29:28.601Z,5.333
2023-01-30T05:30:28.833Z,5.375
2023-01-30T05:31:28.787Z,5.343
2023-01-30T05:32:28.710Z,5.354
2023-01-30T05:33:28.333Z,5.375
2023-01-30T05:34:28.389Z,5.333
2023-01-30T05:35:28.937Z,5.333
2023-01-30T05:36:28.878Z,5.322
2023-01-30T05:37:29.154Z,5.311
2023-01-30T05:38:28.328Z,5.364
2023-01-30T05:39:28.457Z,5.364
2023-01-30T05:40:28.566Z,5.375
2023-01-30T05:41:28.391Z,5.375
2023-01-30T05:42:28.327Z,5.375
2023-01-30T05:43:28.334Z,5.375
2023-01-30T05:44:28.435Z,5.375
2023-01-30T05:45:28.951Z,5.375
2023-01-30T05:46:28.965Z,5.375
2023-01-30T05:47:28.462Z,5.375
2023-01-30T05:48:28.392Z,5.375
2023-01-30T05:49:28.263Z,5.375
2023-01-30T05:50:28.308Z,5.375
2023-01-30T05:51:28.250Z,5.375
2023-01-30T05:52:33.022Z,5.375
2023-01-30T05:53:28.571Z,5.375
2023-01-30T05:54:33.488Z,5.375
2023-01-30T05:55:28.548Z,5.375
2023-01-30T05:56:28.364Z,5.375
2023-01-30T05:57:28.476Z,5.375
2023-01-30T05:58:28.308Z,5.375
2023-01-30T05:59:28.563Z,5.395
2023-01-30T06:00:29.994Z,5.395
2023-01-30T06:01:28.398Z,5.375
2023-01-30T06:02:29.224Z,5.375
2023-01-30T06:03:28.664Z,5.385
2023-01-30T06:04:28.307Z,5.436
2023-01-30T06:05:29.214Z,5.385
2023-01-30T06:06:28.159Z,5.406
2023-01-30T06:07:28.067Z,5.416
2023-01-30T06:08:28.609Z,5.406
2023-01-30T06:09:28.809Z,5.426
2023-01-30T06:10:29.396Z,5.436
2023-01-30T06:11:28.477Z,5.416
2023-01-30T06:12:28.586Z,5.436
2023-01-30T06:13:28.830Z,5.436
2023-01-30T06:14:29.063Z,5.436
2023-01-30T06:15:29.384Z,5.426
2023-01-30T06:16:28.815Z,5.436
2023-01-30T06:17:29.957Z,5.426
2023-01-30T06:18:28.454Z,5.436
2023-01-30T06:19:28.827Z,5.436
2023-01-30T06:20:28.993Z,5.436
2023-01-30T06:21:28.453Z,5.436
2023-01-30T06:22:28.610Z,5.436
2023-01-30T06:23:28.811Z,5.436
2023-01-30T06:24:28.701Z,5.436
2023-01-30T06:25:29.411Z,5.436
2023-01-30T06:26:28.669Z,5.436
2023-01-30T06:27:28.604Z,5.436
2023-01-30T06:28:28.872Z,5.436
2023-01-30T06:29:29.770Z,5.436
2023-01-30T06:30:30.229Z,5.436
2023-01-30T06:31:29.243Z,5.436
2023-01-30T06:32:29.337Z,5.436
2023-01-30T06:33:28.910Z,5.436
2023-01-30T06:34:29.632Z,5.436
2023-01-30T06:35:30.655Z,5.436
2023-01-30T06:36:29.193Z,5.436
2023-01-30T06:37:29.595Z,5.436
2023-01-30T06:38:29.722Z,5.436
2023-01-30T06:39:29.490Z,5.436
2023-01-30T06:40:51.620Z,5.436
2023-01-30T06:41:29.028Z,5.436
2023-01-30T06:42:29.359Z,5.436
2023-01-30T06:43:28.932Z,5.436
2023-01-30T06:44:30.198Z,5.436
2023-01-30T06:45:29.557Z,5.436
2023-01-30T06:46:29.309Z,5.436
2023-01-30T06:47:29.497Z,5.436
2023-01-30T06:48:29.154Z,5.436
2023-01-30T06:49:28.767Z,5.436
2023-01-30T06:50:29.793Z,5.446
2023-01-30T06:51:29.233Z,5.487
2023-01-30T06:52:31.906Z,5.446
2023-01-30T06:53:29.632Z,5.436
2023-01-30T06:54:29.127Z,5.473
2023-01-30T06:55:28.737Z,5.487
2023-01-30T06:56:29.055Z,5.479
2023-01-30T06:57:28.340Z,5.489
2023-01-30T06:58:28.591Z,5.5
2023-01-30T06:59:28.758Z,5.5
2023-01-30T07:00:29.891Z,5.5
2023-01-30T07:01:29.140Z,5.5
2023-01-30T07:02:28.603Z,5.5
2023-01-30T07:03:28.664Z,5.5
2023-01-30T07:04:50.837Z,5.5
2023-01-30T07:05:29.419Z,5.5
2023-01-30T07:06:28.519Z,5.5
2023-01-30T07:07:28.321Z,5.5
2023-01-30T07:08:28.215Z,5.5
2023-01-30T07:09:28.438Z,5.5
2023-01-30T07:10:28.787Z,5.5
2023-01-30T07:11:29.235Z,5.5
2023-01-30T07:12:28.154Z,5.5
2023-01-30T07:13:28.665Z,5.5
2023-01-30T07:14:28.807Z,5.5
2023-01-30T07:15:29.751Z,5.5
2023-01-30T07:16:28.786Z,5.5
2023-01-30T07:17:29.447Z,5.5
2023-01-30T07:18:28.693Z,5.5
2023-01-30T07:19:28.337Z,5.5
2023-01-30T07:20:28.833Z,5.5
2023-01-30T07:21:29.015Z,5.5
2023-01-30T07:22:28.667Z,5.5
2023-01-30T07:23:29.238Z,5.5
2023-01-30T07:24:28.852Z,5.5
2023-01-30T07:25:30.146Z,5.5
2023-01-30T07:26:28.585Z,5.5
2023-01-30T07:27:28.669Z,5.5
2023-01-30T07:28:28.635Z,4.5
2023-01-30T07:29:28.929Z,5.5
2023-01-30T07:30:29.500Z,5.510
2023-01-30T07:31:28.718Z,5.5
2023-01-30T07:32:28.767Z,5.541
2023-01-30T07:33:28.893Z,5.541
2023-01-30T07:34:28.738Z,5.551
2023-01-30T07:35:30.221Z,5.541
2023-01-30T07:37:28.545Z,5.520
2023-01-30T07:38:31.058Z,5.541
2023-01-30T07:39:29.087Z,5.551
2023-01-30T07:40:28.775Z,5.510
2023-01-30T07:41:29.725Z,5.510
2023-01-30T07:42:28.973Z,5.541
2023-01-30T07:43:29.467Z,5.551
2023-01-30T07:44:29.216Z,5.551
2023-01-30T07:45:29.307Z,5.561
2023-01-30T07:46:28.743Z,5.561
2023-01-30T07:47:29.074Z,5.561
2023-01-30T07:48:28.543Z,5.561
2023-01-30T07:49:28.861Z,5.561
2023-01-30T07:50:29.794Z,5.561
2023-01-30T07:51:28.730Z,5.561
2023-01-30T07:52:28.902Z,5.561
2023-01-30T07:53:28.938Z,5.561
2023-01-30T07:54:29.233Z,5.561
2023-01-30T07:55:29.112Z,5.561
2023-01-30T07:56:28.442Z,5.561
2023-01-30T07:57:28.893Z,5.561
2023-01-30T07:58:30.021Z,5.561
2023-01-30T07:59:29.149Z,5.561
2023-01-30T08:00:29.944Z,5.561
2023-01-30T08:01:29.441Z,5.561
2023-01-30T08:02:28.936Z,5.561
2023-01-30T08:03:28.940Z,5.561
2023-01-30T08:04:29.020Z,5.561
2023-01-30T08:05:28.312Z,5.561
2023-01-30T08:06:28.736Z,5.561
2023-01-30T08:07:29.366Z,5.561
2023-01-30T08:08:28.683Z,5.561
2023-01-30T08:09:28.923Z,5.561
2023-01-30T08:10:29.242Z,5.561
2023-01-30T08:11:28.770Z,5.561
2023-01-30T08:12:29.135Z,5.561
2023-01-30T08:13:28.452Z,5.561
2023-01-30T08:14:28.693Z,5.561
2023-01-30T08:15:31.361Z,5.561
2023-01-30T08:16:28.784Z,5.561
2023-01-30T08:17:29.154Z,5.561
2023-01-30T08:18:28.571Z,5.561
2023-01-30T08:19:28.967Z,5.561
2023-01-30T08:20:30.068Z,5.598
2023-01-30T08:21:28.637Z,5.625
2023-01-30T08:22:28.801Z,5.606
2023-01-30T08:23:28.969Z,5.625
2023-01-30T08:24:29.075Z,5.625
2023-01-30T08:25:28.769Z,5.625
2023-01-30T08:26:29.133Z,5.614
2023-01-30T08:27:28.908Z,5.625
2023-01-30T08:28:29.241Z,5.625
2023-01-30T08:29:31.096Z,5.625
2023-01-30T08:30:30.786Z,5.625
2023-01-30T08:31:29.499Z,5.625
2023-01-30T08:32:29.167Z,5.625
2023-01-30T08:33:28.865Z,5.625
2023-01-30T08:34:29.707Z,5.625
2023-01-30T08:35:29.620Z,5.625
2023-01-30T08:36:28.809Z,5.625
2023-01-30T08:37:29.342Z,5.625
2023-01-30T08:38:29.198Z,5.625
2023-01-30T08:39:29.471Z,5.625
2023-01-30T08:40:30.073Z,5.625
2023-01-30T08:41:29.336Z,5.625
2023-01-30T08:42:29.474Z,5.625
2023-01-30T08:43:29.339Z,5.625
2023-01-30T08:44:29.498Z,5.635
2023-01-30T08:45:29.145Z,5.625
2023-01-30T08:46:29.208Z,5.625
2023-01-30T08:47:29.222Z,5.625
2023-01-30T08:48:36.743Z,5.625
2023-01-30T08:49:43.544Z,5.625
2023-01-30T08:50:32.307Z,5.625
2023-01-30T08:51:29.335Z,5.625
2023-01-30T08:52:29.516Z,5.625
2023-01-30T08:53:29.176Z,5.676
2023-01-30T08:54:29.135Z,5.676
2023-01-30T08:55:28.943Z,5.645
2023-01-30T08:56:29.988Z,5.686
2023-01-30T08:57:29.491Z,5.686
2023-01-30T08:58:29.135Z,5.686
2023-01-30T08:59:48.254Z,5.686
2023-01-30T09:00:30.254Z,5.676
2023-01-30T09:01:29.260Z,5.686
2023-01-30T09:02:29.234Z,5.686
2023-01-30T09:03:29.233Z,5.635
2023-01-30T09:04:29.278Z,5.666
2023-01-30T09:05:42.878Z,5.676
2023-01-30T09:06:29.225Z,5.686
2023-01-30T09:07:29.071Z,5.686
2023-01-30T09:08:29.122Z,5.686
2023-01-30T09:09:29.064Z,5.686
2023-01-30T09:10:29.773Z,5.686
2023-01-30T09:11:29.479Z,5.686
2023-01-30T09:13:29.308Z,5.686
2023-01-30T09:15:29.016Z,5.686
2023-01-30T09:16:29.666Z,5.686
2023-01-30T09:17:29.268Z,5.686
2023-01-30T09:18:29.030Z,5.686
2023-01-30T09:19:29.272Z,5.686
2023-01-30T09:20:30.209Z,5.686
2023-01-30T09:21:29.527Z,5.686
2023-01-30T09:22:29.551Z,5.686
2023-01-30T09:23:29.697Z,5.708
2023-01-30T09:24:29.547Z,5.729
2023-01-30T09:25:29.398Z,5.75
2023-01-30T09:26:29.428Z,5.75
2023-01-30T09:27:29.131Z,5.739
2023-01-30T09:28:28.306Z,5.708
2023-01-30T09:29:28.990Z,5.686
2023-01-30T09:30:28.879Z,5.686
2023-01-30T09:31:51.164Z,5.708
2023-01-30T09:33:28.612Z,5.75
2023-01-30T09:34:28.792Z,5.75
2023-01-30T09:35:28.997Z,5.75
2023-01-30T09:37:28.991Z,5.75
2023-01-30T09:39:28.887Z,5.75
2023-01-30T09:40:29.752Z,5.75
2023-01-30T09:41:29.071Z,5.75
2023-01-30T09:42:28.283Z,5.75
2023-01-30T09:43:28.966Z,5.75
2023-01-30T09:44:28.777Z,5.75
2023-01-30T09:46:29.543Z,5.760
2023-01-30T09:47:29.445Z,5.762
2023-01-30T09:48:31.233Z,5.767
2023-01-30T09:49:30.391Z,5.75
2023-01-30T09:50:30.065Z,5.75
2023-01-30T09:51:29.483Z,5.75
2023-01-30T09:52:29.205Z,5.794
2023-01-30T09:53:29.225Z,5.811
2023-01-30T09:54:29.421Z,5.811
2023-01-30T09:55:29.914Z,5.787
2023-01-30T09:56:29.656Z,5.776
2023-01-30T09:57:31.786Z,5.811
2023-01-30T09:58:29.540Z,5.811
2023-01-30T09:59:29.623Z,5.811
2023-01-30T10:00:31.073Z,5.811
2023-01-30T10:01:31.717Z,5.811
2023-01-30T10:02:29.967Z,5.811
2023-01-30T10:03:29.962Z,5.811
2023-01-30T10:04:29.716Z,5.811
2023-01-30T10:05:29.739Z,5.811
2023-01-30T10:06:30.503Z,5.811
2023-01-30T10:07:32.486Z,5.811
2023-01-30T10:08:29.172Z,5.811
2023-01-30T10:09:29.577Z,5.811
2023-01-30T10:10:29.961Z,5.811
2023-01-30T10:11:29.767Z,5.811
2023-01-30T10:12:29.302Z,5.811
2023-01-30T10:13:29.539Z,5.811
2023-01-30T10:14:29.563Z,5.811
2023-01-30T10:15:29.517Z,5.811
2023-01-30T10:16:29.635Z,5.811
2023-01-30T10:17:32.511Z,5.833
2023-01-30T10:18:29.558Z,5.854
2023-01-30T10:19:46.549Z,5.843
2023-01-30T10:20:29.784Z,5.875
2023-01-30T10:21:29.670Z,5.864
2023-01-30T10:22:29.307Z,5.833
2023-01-30T10:23:29.992Z,5.811
2023-01-30T10:24:29.775Z,5.822
2023-01-30T10:25:29.861Z,5.875
2023-01-30T10:26:29.910Z,5.864
2023-01-30T10:27:29.782Z,5.875
2023-01-30T10:28:29.661Z,5.875
2023-01-30T10:29:32.123Z,5.875
2023-01-30T10:30:30.562Z,5.875
2023-01-30T10:31:29.338Z,5.875
2023-01-30T10:32:30.027Z,5.875
2023-01-30T10:33:29.458Z,5.875
2023-01-30T10:34:29.429Z,5.875
2023-01-30T10:35:29.535Z,5.875
2023-01-30T10:36:29.658Z,5.875
2023-01-30T10:37:29.757Z,5.875
2023-01-30T10:38:29.744Z,5.875
2023-01-30T10:39:30.162Z,5.875
2023-01-30T10:40:30.096Z,5.875
2023-01-30T10:41:29.411Z,5.875
2023-01-30T10:42:29.153Z,5.875
2023-01-30T10:43:28.930Z,5.875
2023-01-30T10:44:29.200Z,5.875
2023-01-30T10:45:29.089Z,5.875
2023-01-30T10:47:41.703Z,5.875
2023-01-30T10:48:42.645Z,5.875
2023-01-30T10:49:29.940Z,5.875
2023-01-30T10:50:31.612Z,5.875
2023-01-30T10:51:30.430Z,5.916
2023-01-30T10:52:29.885Z,5.926
2023-01-30T10:53:29.424Z,5.916
2023-01-30T10:54:31.164Z,5.875
2023-01-30T10:55:47.197Z,5.875
2023-01-30T10:56:29.340Z,5.875
2023-01-30T10:57:29.643Z,5.875
2023-01-30T10:58:37.458Z,5.916
2023-01-30T10:59:29.291Z,5.875
2023-01-30T11:00:37.556Z,5.895
2023-01-30T11:01:29.231Z,5.906
2023-01-30T11:02:37.871Z,5.895
2023-01-30T11:03:29.749Z,5.875
2023-01-30T11:04:29.776Z,5.875
2023-01-30T11:05:30.275Z,5.926
2023-01-30T11:06:29.700Z,5.895
2023-01-30T11:07:29.507Z,5.916
2023-01-30T11:08:29.126Z,5.936
2023-01-30T11:09:29.136Z,5.936
2023-01-30T11:10:34.142Z,5.936
2023-01-30T11:11:30.498Z,5.936
2023-01-30T11:12:31.281Z,5.936
2023-01-30T11:13:29.935Z,5.936
2023-01-30T11:14:34.900Z,5.936
2023-01-30T11:15:30.485Z,5.936
2023-01-30T11:16:29.521Z,5.936
2023-01-30T11:17:29.639Z,5.936
2023-01-30T11:19:33.494Z,5.936
2023-01-30T11:19:38.394Z,5.936
2023-01-30T11:20:31.773Z,5.936
2023-01-30T11:21:42.408Z,5.962
2023-01-30T11:22:29.546Z,5.946
2023-01-30T11:23:29.355Z,5.936
2023-01-30T11:24:28.904Z,5.936
2023-01-30T11:25:30.374Z,5.936
2023-01-30T11:26:37.754Z,5.936
2023-01-30T11:27:29.714Z,5.936
2023-01-30T11:28:29.212Z,5.936
2023-01-30T11:29:29.321Z,5.936
2023-01-30T11:30:30.608Z,5.936
2023-01-30T11:31:46.453Z,5.936
2023-01-30T11:32:30.438Z,5.936
2023-01-30T11:33:28.708Z,5.936
2023-01-30T11:34:29.631Z,5.936
2023-01-30T11:35:29.508Z,5.936
2023-01-30T11:36:28.622Z,5.947
2023-01-30T11:37:28.961Z,5.936
2023-01-30T11:38:29.444Z,5.936
2023-01-30T11:39:29.266Z,5.936
2023-01-30T11:40:30.236Z,5.936
2023-01-30T11:41:30.169Z,5.958
2023-01-30T11:42:29.465Z,5.989
2023-01-30T11:43:29.643Z,6
2023-01-30T11:44:29.770Z,5.979
2023-01-30T11:45:29.823Z,5.947
2023-01-30T11:46:56.960Z,6
2023-01-30T11:47:29.075Z,5.979
2023-01-30T11:49:45.029Z,5.979
2023-01-30T11:50:10.702Z,6
2023-01-30T11:50:57.363Z,6
2023-01-30T11:51:29.567Z,6
2023-01-30T11:52:29.427Z,6
2023-01-30T11:53:29.444Z,6
2023-01-30T11:54:29.413Z,6
2023-01-30T11:55:29.654Z,6
2023-01-30T11:56:51.415Z,6
2023-01-30T11:57:29.657Z,6
2023-01-30T11:58:29.853Z,6
2023-01-30T11:59:30.686Z,6
2023-01-30T12:00:50.858Z,6
2023-01-30T12:01:31.287Z,6
2023-01-30T12:02:30.491Z,6
2023-01-30T12:03:29.478Z,6
2023-01-30T12:04:29.341Z,6
2023-01-30T12:05:30.188Z,6
2023-01-30T12:06:29.603Z,6
2023-01-30T12:07:29.428Z,6
2023-01-30T12:08:42.357Z,6
2023-01-30T12:09:29.489Z,6
2023-01-30T12:10:29.998Z,6
2023-01-30T12:11:28.966Z,6
2023-01-30T12:12:29.881Z,6.031
2023-01-30T12:13:29.337Z,6.020
2023-01-30T12:14:29.200Z,6
2023-01-30T12:15:29.331Z,6
2023-01-30T12:16:29.357Z,6
2023-01-30T12:17:29.346Z,6
2023-01-30T12:18:29.213Z,6
2023-01-30T12:19:28.653Z,6
2023-01-30T12:20:29.628Z,6
2023-01-30T12:21:28.708Z,6.051
2023-01-30T12:22:29.019Z,6.061
2023-01-30T12:23:28.981Z,6.061
2023-01-30T12:24:29.471Z,6.061
2023-01-30T12:25:28.844Z,6.041
2023-01-30T12:26:29.148Z,6.031
2023-01-30T12:27:28.243Z,6
2023-01-30T12:28:29.392Z,6
2023-01-30T12:29:29.547Z,6.051
2023-01-30T12:30:30.619Z,6.061
2023-01-30T12:31:30.553Z,6.041
2023-01-30T12:32:30.649Z,6.061
2023-01-30T12:33:30.516Z,6.061
2023-01-30T12:34:30.448Z,6.061
2023-01-30T12:35:31.558Z,6.061
2023-01-30T12:36:31.008Z,6.051
2023-01-30T12:37:30.108Z,6.061
2023-01-30T12:38:30.577Z,6.061
2023-01-30T12:39:30.693Z,6.061
2023-01-30T12:40:31.139Z,6.061
2023-01-30T12:41:29.989Z,6.061
2023-01-30T12:42:34.649Z,6.061
2023-01-30T12:43:31.058Z,6.061
2023-01-30T12:44:30.285Z,6.061
2023-01-30T12:45:31.190Z,6.061
2023-01-30T12:46:30.314Z,6.061
2023-01-30T12:47:30.120Z,6.061
2023-01-30T12:48:30.104Z,6.061
2023-01-30T12:49:30.202Z,6.061
2023-01-30T12:50:30.557Z,6.061
2023-01-30T12:51:30.663Z,6.061
2023-01-30T12:52:31.084Z,6.061
2023-01-30T12:53:30.490Z,6.061
2023-01-30T12:54:33.120Z,6.061
2023-01-30T12:55:32.082Z,6.061
2023-01-30T12:56:30.339Z,6.061
2023-01-30T12:57:31.079Z,6.061
2023-01-30T12:58:30.281Z,5
2023-01-30T12:59:29.985Z,6.061
2023-01-30T13:00:30.843Z,6.061
2023-01-30T13:01:31.420Z,6.099
2023-01-30T13:02:31.013Z,6.104
2023-01-30T13:03:30.002Z,5
2023-01-30T13:04:29.965Z,6.072
2023-01-30T13:05:30.931Z,6.061
2023-01-30T13:06:30.499Z,6.061
2023-01-30T13:07:30.196Z,6.072
2023-01-30T13:08:29.643Z,6.061
2023-01-30T13:09:30.266Z,6.072
2023-01-30T13:10:31.434Z,6.072
2023-01-30T13:11:30.664Z,6.083
2023-01-30T13:12:30.509Z,6.104
2023-01-30T13:13:29.842Z,6.093
2023-01-30T13:14:29.760Z,6.114
2023-01-30T13:15:30.824Z,6.104
2023-01-30T13:16:32.087Z,6.061
2023-01-30T13:17:30.507Z,6.072
2023-01-30T13:18:30.156Z,6.125
2023-01-30T13:19:40.694Z,6.125
2023-01-30T13:20:30.466Z,6.125
2023-01-30T13:21:38.081Z,6.125
2023-01-30T13:22:29.920Z,6.104
2023-01-30T13:23:31.330Z,6.114
2023-01-30T13:24:30.125Z,6.072
2023-01-30T13:25:38.155Z,6.125
2023-01-30T13:26:30.107Z,6.125
2023-01-30T13:27:29.892Z,6.125
2023-01-30T13:28:30.082Z,6.104